LFROLFRN

Guest
Details From LFRO - Lannion
To LFRN - Rennes St Jacques
Flight Number -
Tags generated
Created
Modified
Stats Distance 81 nm / 149 km
Max Altitude 0 ft / 0 m
Waypoints 3
Social Downloads 0
Likes 0
Share VATSIM

Download

Looking for another format? Having issues loading an existing format? Contact us
Advertisement - Login to hide

Notes

Basic altitude profile: - Ascent Rate: 2500ft/min - Ascent Speed: 250kts - Cruise Altitude: 35000ft - Cruise Speed: 420kts - Descent Rate: 1500ft/min - Descent Speed: 250kts

Route

LFRO REN LFRN

ID Type Via Altitude Latitude Longitude Leg Dist Tot Dist Heading (true) Name
O LFRO APT - 0 ft / 0 m 48.75431˚ -3.47175˚ - 0 nm - Lannion
REN VOR - 0 ft / 0 m 48.06925˚ -1.74167˚ 80 nm 80 nm 120° / 121° RENNES SAINT JACQUES VOR-DME
O LFRN APT - 0 ft / 0 m 48.06941˚ -1.73459˚ 0 nm 80 nm 88° / 88° Rennes St Jacques

Altitude Profile

Advertisement - Login to hide

LFRO

Details ICAO LFRO (LAI)
Name Lannion
Region France
Timezone Europe/Paris (UTC+1.0)
Stats Elevation 291 ft / 89 m (AMSL)
Location 48.754309° -3.471747°
Runways 1
Magnetic Variation 1.284° W

METAR

LFRO 181700Z AUTO 07003KT CAVOK 07/05 Q1031 NOSIG

Decode

TAF

TAF LFRO 181100Z 1812/1912 04005KT 9999 SCT015 BKN020 PROB40 TEMPO 1900/1906 2000 BR

Decode

Departure Runways

ID Width Length Bearing (true) Bearing (mag) Surface Threshold Offset Overrun Length
11 148 ft / 45 m 5,547 ft / 1,691 m 107.61° 108.89° Asphalt 755 ft / 230 m 0 ft / 0 m
29 148 ft / 45 m 5,547 ft / 1,691 m 287.62° 288.90° Asphalt 591 ft / 180 m 0 ft / 0 m

LFRN

Details ICAO LFRN (RNS)
Name Rennes St Jacques
Region France
Timezone Europe/Paris (UTC+1.0)
Stats Elevation 124 ft / 38 m (AMSL)
Location 48.069410° -1.734587°
Runways 2
Magnetic Variation 0.632° W

METAR

LFRN 181700Z AUTO 36004KT CAVOK 07/03 Q1031 NOSIG

Decode

TAF

TAF LFRN 181100Z 1812/1912 01010KT 9999 SCT025 BECMG 1817/1820 VRB03KT BECMG 1821/1824 3000 BR TEMPO 1905/1910 0500 FZFG VV/// BECMG 1910/1912 9999 NSW SCT008

Decode

Destination Runways

ID Width Length Bearing (true) Bearing (mag) Surface Threshold Offset Overrun Length
10 148 ft / 45 m 6,895 ft / 2,102 m 100.76° 101.39° Asphalt 230 ft / 70 m 0 ft / 0 m
14 98 ft / 30 m 2,785 ft / 849 m 142.19° 142.82° Asphalt 0 ft / 0 m 0 ft / 0 m
28 148 ft / 45 m 6,895 ft / 2,102 m 280.78° 281.41° Asphalt 0 ft / 0 m 0 ft / 0 m
32 98 ft / 30 m 2,785 ft / 849 m 322.20° 322.83° Asphalt 0 ft / 0 m 0 ft / 0 m

Approach Navaids

Runway Type Ident Frequency Range Bearing (true) Bearing (mag) Slope Elevation
28 Localiser RS 110.10 MHz 18 nm / 33 km 280.72° 281.35° - 124 ft / 38 m (AMSL)
28 Glidescope RS 110.10 MHz 10 nm / 19 km 280.77° 281.40° 3.00° 124 ft / 38 m (AMSL)
28 DME RS 110.10 MHz 18 nm / 33 km - - - 174 ft / 53 m (AMSL)

Popular Alternatives